Time;durP1;ratioP1;P1;durP2;ratioP2;P2;SDS_P1;SDS_P2;PMS_P1;PMS_P2;Temp;Humidity;BMP_temperature;BMP_pressure;BME280_temperature;BME280_humidity;BME280_pressure;Samples;Min_cycle;Max_cycle;Signal;HPM_P1;HPM_P2
2022/12/19 00:00:46;;;;;;;16.23;10.30;;;16.90;54.60;;;;;;4964801;29;20062;-62
2022/12/19 00:03:11;;;;;;;17.27;10.88;;;16.90;54.50;;;;;;4964800;29;20315;-62
2022/12/19 00:05:38;;;;;;;16.63;11.20;;;16.90;54.50;;;;;;4964725;29;20038;-62
2022/12/19 00:08:15;;;;;;;16.60;10.23;;;16.90;54.50;;;;;;4964391;29;20077;-63
2022/12/19 00:10:42;;;;;;;16.92;10.38;;;16.90;54.50;;;;;;4964724;29;20039;-62
2022/12/19 00:13:08;;;;;;;16.15;10.32;;;16.90;54.40;;;;;;4964548;29;20393;-62
2022/12/19 00:15:35;;;;;;;12.95;9.48;;;16.90;54.40;;;;;;4964506;29;20034;-62
2022/12/19 00:18:00;;;;;;;14.35;9.82;;;16.90;54.30;;;;;;4964466;29;20019;-61
2022/12/19 00:20:26;;;;;;;15.98;10.75;;;16.90;54.30;;;;;;4964465;29;20074;-60
2022/12/19 00:22:52;;;;;;;15.27;10.35;;;16.80;54.40;;;;;;4964368;29;20226;-61
2022/12/19 00:25:18;;;;;;;16.33;10.07;;;16.90;54.40;;;;;;4964072;29;20094;-62
2022/12/19 00:27:44;;;;;;;17.58;9.95;;;16.90;54.40;;;;;;4964450;29;20030;-63
2022/12/19 00:30:10;;;;;;;15.23;10.32;;;17.00;54.10;;;;;;4964077;29;20027;-62
2022/12/19 00:32:36;;;;;;;14.23;10.10;;;17.10;53.70;;;;;;4964102;29;20086;-62
2022/12/19 00:35:02;;;;;;;15.65;9.48;;;17.10;53.80;;;;;;4964064;29;20027;-62
2022/12/19 00:37:28;;;;;;;15.15;9.57;;;17.20;53.90;;;;;;4964087;29;20222;-62
2022/12/19 00:39:54;;;;;;;14.88;10.32;;;17.30;53.90;;;;;;4963989;29;20034;-63
2022/12/19 00:42:20;;;;;;;13.95;9.43;;;17.40;53.20;;;;;;4963847;29;20083;-63
2022/12/19 00:44:46;;;;;;;13.18;8.77;;;17.50;53.20;;;;;;4963948;29;20026;-62
2022/12/19 00:47:12;;;;;;;14.55;9.68;;;17.60;53.40;;;;;;4963858;29;20358;-62
2022/12/19 00:49:38;;;;;;;17.50;9.98;;;17.70;53.10;;;;;;4963959;29;20078;-62
2022/12/19 00:52:04;;;;;;;13.60;8.55;;;17.80;52.90;;;;;;4963845;29;20027;-62
2022/12/19 00:54:29;;;;;;;15.32;10.35;;;17.80;53.00;;;;;;4963787;29;20065;-62
2022/12/19 00:56:55;;;;;;;15.13;10.85;;;17.80;52.50;;;;;;4963765;29;20038;-62
2022/12/19 00:59:21;;;;;;;15.55;9.43;;;17.70;52.90;;;;;;4962940;28;20023;-62
2022/12/19 01:01:47;;;;;;;12.48;8.50;;;17.60;52.50;;;;;;4963499;29;20264;-62
2022/12/19 01:04:14;;;;;;;16.38;8.93;;;17.50;52.80;;;;;;4963630;29;20026;-62
2022/12/19 01:06:40;;;;;;;16.13;9.43;;;17.50;52.90;;;;;;4963480;29;20118;-62
2022/12/19 01:09:05;;;;;;;13.35;8.70;;;17.30;53.00;;;;;;4963640;29;20066;-62
2022/12/19 01:14:16;;;;;;;13.48;9.13;;;17.10;53.50;;;;;;4963541;29;20017;-62
2022/12/19 01:16:41;;;;;;;16.77;10.27;;;17.00;53.90;;;;;;4963510;29;20046;-62
2022/12/19 01:19:07;;;;;;;16.42;9.40;;;17.00;54.00;;;;;;4963452;29;20027;-61
2022/12/19 01:21:33;;;;;;;15.32;10.30;;;17.00;53.80;;;;;;4963497;29;20058;-63
2022/12/19 01:24:01;;;;;;;17.65;9.93;;;17.00;54.00;;;;;;4963179;29;20027;-62
2022/12/19 01:26:26;;;;;;;14.27;9.30;;;16.90;53.90;;;;;;4963295;29;20023;-62
2022/12/19 01:28:52;;;;;;;13.50;9.13;;;16.90;54.00;;;;;;4963323;29;20038;-62
2022/12/19 01:31:18;;;;;;;15.90;10.07;;;16.90;54.10;;;;;;4963179;29;20035;-62
2022/12/19 01:33:44;;;;;;;14.52;8.90;;;16.90;54.00;;;;;;4963280;29;20067;-63
2022/12/19 01:36:09;;;;;;;13.43;8.77;;;16.90;53.90;;;;;;4963206;29;20323;-62
2022/12/19 01:38:36;;;;;;;15.25;10.15;;;16.90;53.90;;;;;;4963165;29;20318;-63
2022/12/19 01:41:02;;;;;;;17.13;10.90;;;16.90;53.80;;;;;;4963203;29;20247;-62
2022/12/19 01:43:31;;;;;;;16.15;9.98;;;16.80;53.90;;;;;;4963146;29;20035;-62
2022/12/19 01:46:00;;;;;;;16.48;9.70;;;16.80;53.90;;;;;;4963103;29;20054;-62
2022/12/19 01:48:47;;;;;;;15.85;10.50;;;16.80;54.10;;;;;;4962904;29;20115;-63
2022/12/19 01:51:19;;;;;;;13.43;8.43;;;16.80;54.10;;;;;;4963019;29;20062;-62
2022/12/19 01:53:50;;;;;;;15.18;9.15;;;16.70;54.10;;;;;;4963112;29;20023;-63
2022/12/19 01:56:21;;;;;;;15.27;9.48;;;16.90;54.20;;;;;;4963059;29;20227;-62
2022/12/19 01:58:51;;;;;;;14.85;9.75;;;16.90;53.90;;;;;;4963109;29;20321;-62
2022/12/19 02:01:18;;;;;;;16.17;10.40;;;17.00;54.40;;;;;;4962912;29;20043;-62
2022/12/19 02:03:44;;;;;;;14.70;9.13;;;17.00;53.50;;;;;;4963032;29;20035;-62
2022/12/19 02:06:15;;;;;;;12.57;8.52;;;17.10;54.00;;;;;;4962823;29;20164;-62
2022/12/19 02:08:45;;;;;;;12.35;8.38;;;17.20;53.20;;;;;;4962855;28;20098;-62
2022/12/19 02:11:10;;;;;;;14.38;8.52;;;17.20;53.50;;;;;;4966441;29;20037;-62
2022/12/19 02:13:36;;;;;;;15.20;8.85;;;17.20;53.20;;;;;;4966715;29;20031;-62
2022/12/19 02:16:20;;;;;;;14.55;9.32;;;17.30;53.10;;;;;;4966601;29;20023;-62
2022/12/19 02:19:24;;;;;;;12.82;8.75;;;17.40;52.30;;;;;;4966446;29;20087;-62
2022/12/19 02:22:15;;;;;;;14.15;9.05;;;17.50;52.80;;;;;;4966368;29;20031;-63
2022/12/19 02:25:00;;;;;;;12.52;8.65;;;17.60;52.70;;;;;;4966570;29;20038;-62
2022/12/19 02:27:45;;;;;;;13.68;9.10;;;17.60;52.50;;;;;;4966330;29;20058;-62
2022/12/19 02:30:41;;;;;;;14.80;8.70;;;17.60;52.10;;;;;;4966416;29;20042;-62
2022/12/19 02:33:32;;;;;;;14.73;9.38;;;17.60;52.80;;;;;;4966543;29;20027;-63
2022/12/19 02:36:14;;;;;;;17.25;10.40;;;17.60;52.50;;;;;;4966302;29;20180;-62
2022/12/19 02:39:05;;;;;;;14.18;9.85;;;17.50;52.70;;;;;;4966303;29;20023;-62
2022/12/19 02:41:43;;;;;;;14.32;9.15;;;17.30;52.20;;;;;;4966338;29;20023;-62
2022/12/19 02:44:12;;;;;;;;;;;17.20;53.00;;;;;;4966571;29;20054;-63
2022/12/19 02:46:40;;;;;;;14.68;10.10;;;17.10;52.90;;;;;;4966114;29;20000;-63
2022/12/19 02:49:06;;;;;;;12.98;8.90;;;17.00;53.00;;;;;;4966051;29;20030;-62
2022/12/19 02:51:32;;;;;;;14.52;9.70;;;16.90;53.30;;;;;;4966000;29;20107;-62
2022/12/19 02:53:58;;;;;;;15.45;9.40;;;16.90;53.20;;;;;;4965859;29;20015;-64
2022/12/19 02:56:41;;;;;;;13.52;9.90;;;16.90;53.50;;;;;;4965909;29;20019;-64
2022/12/19 02:59:17;;;;;;;13.55;9.07;;;16.90;53.40;;;;;;4965889;29;20231;-63
2022/12/19 03:02:12;;;;;;;14.25;9.48;;;16.90;53.70;;;;;;4965790;29;20362;-62
2022/12/19 03:05:02;;;;;;;11.90;7.80;;;16.90;53.60;;;;;;4962727;29;20070;-62
2022/12/19 03:07:33;;;;;;;13.23;8.80;;;16.90;53.70;;;;;;4965593;29;20059;-62
2022/12/19 03:10:20;;;;;;;12.80;8.32;;;16.90;53.90;;;;;;4965657;29;20030;-62
2022/12/19 03:12:52;;;;;;;13.27;8.27;;;16.80;53.80;;;;;;4965718;29;20339;-62
2022/12/19 03:15:19;;;;;;;14.43;9.57;;;16.80;53.80;;;;;;4965679;29;20046;-62
2022/12/19 03:17:46;;;;;;;15.57;10.13;;;16.80;53.90;;;;;;4965574;29;20023;-62
2022/12/19 03:20:25;;;;;;;15.40;9.68;;;16.70;53.90;;;;;;4965492;29;20254;-62
2022/12/19 03:22:51;;;;;;;13.15;8.55;;;16.80;53.80;;;;;;4964843;29;20023;-62
2022/12/19 03:25:19;;;;;;;15.75;9.48;;;16.90;53.60;;;;;;4965499;29;20057;-62
2022/12/19 03:27:47;;;;;;;14.55;9.65;;;16.90;53.50;;;;;;4965413;29;20107;-62
2022/12/19 03:30:13;;;;;;;13.80;9.32;;;17.00;53.40;;;;;;4965374;29;20259;-63
2022/12/19 03:32:42;;;;;;;13.68;9.07;;;17.00;53.30;;;;;;4965347;29;20354;-62
2022/12/19 03:35:21;;;;;;;12.82;7.78;;;17.10;53.50;;;;;;4965323;29;20050;-62
2022/12/19 03:37:48;;;;;;;;;;;17.20;53.40;;;;;;4965738;29;20019;-62
2022/12/19 03:40:18;;;;;;;14.38;8.65;;;17.30;53.10;;;;;;4980099;28;20098;-61
2022/12/19 03:45:55;;;;;;;13.13;8.43;;;17.40;52.70;;;;;;4965129;29;20079;-62
2022/12/19 03:48:53;;;;;;;13.52;8.32;;;17.50;52.90;;;;;;4961734;29;20035;-63
2022/12/19 03:51:47;;;;;;;12.50;7.88;;;17.60;52.40;;;;;;4956125;29;20038;-62
2022/12/19 03:54:16;;;;;;;12.50;8.57;;;17.60;52.50;;;;;;4965000;29;20034;-62
2022/12/19 03:57:17;;;;;;;12.25;8.50;;;17.70;52.50;;;;;;4964771;29;20030;-62
2022/12/19 03:59:51;;;;;;;12.77;8.23;;;17.60;52.60;;;;;;4960814;29;20094;-62
2022/12/19 04:02:20;;;;;;;12.75;9.30;;;17.60;52.90;;;;;;4964769;29;20038;-62
2022/12/19 04:04:51;;;;;;;12.85;8.35;;;17.50;53.00;;;;;;4964761;29;20027;-62
2022/12/19 04:07:18;;;;;;;12.43;8.63;;;17.40;52.60;;;;;;4964566;29;20059;-62
2022/12/19 04:09:45;;;;;;;12.80;8.18;;;17.20;52.70;;;;;;4964676;29;20035;-63
2022/12/19 04:12:32;;;;;;;12.93;8.75;;;17.10;53.10;;;;;;4964476;29;20118;-62
2022/12/19 04:14:58;;;;;;;12.80;8.68;;;17.00;53.10;;;;;;4964687;29;20018;-62
2022/12/19 04:17:29;;;;;;;13.35;9.60;;;17.00;53.30;;;;;;4964388;29;20027;-62
2022/12/19 04:20:17;;;;;;;13.75;10.13;;;16.90;53.20;;;;;;4964394;29;20023;-63
2022/12/19 04:22:55;;;;;;;12.02;8.43;;;16.90;53.40;;;;;;4964414;29;20023;-62
2022/12/19 04:25:29;;;;;;;12.70;8.27;;;16.90;53.50;;;;;;4964355;29;20023;-62
2022/12/19 04:28:14;;;;;;;12.73;8.38;;;16.90;53.60;;;;;;4964274;29;20019;-62
2022/12/19 04:30:41;;;;;;;13.02;9.70;;;16.80;53.70;;;;;;4964118;29;20274;-62
2022/12/19 04:33:07;;;;;;;15.57;9.68;;;16.80;53.70;;;;;;4964111;28;20027;-62
2022/12/19 04:35:34;;;;;;;12.07;7.93;;;16.80;53.80;;;;;;4964060;29;20207;-62
2022/12/19 04:37:59;;;;;;;14.57;9.18;;;16.80;53.90;;;;;;4964101;29;20148;-62
2022/12/19 04:40:25;;;;;;;11.13;7.78;;;16.80;53.70;;;;;;4964059;29;20342;-62
2022/12/19 04:42:51;;;;;;;15.90;9.57;;;16.70;53.80;;;;;;4964016;29;20023;-61
2022/12/19 04:45:17;;;;;;;11.10;8.15;;;16.80;53.80;;;;;;4963882;29;20222;-62
2022/12/19 04:47:43;;;;;;;13.32;8.60;;;16.80;53.80;;;;;;4963827;29;20271;-62
2022/12/19 04:50:09;;;;;;;10.63;7.90;;;16.90;53.50;;;;;;4963825;29;20022;-63
2022/12/19 04:52:35;;;;;;;14.52;9.23;;;16.90;53.40;;;;;;4963877;29;20038;-62
2022/12/19 04:55:00;;;;;;;13.68;8.38;;;17.00;53.60;;;;;;4963798;29;20019;-62
2022/12/19 04:57:30;;;;;;;13.52;8.38;;;17.00;53.60;;;;;;4963675;29;20315;-62
2022/12/19 04:59:56;;;;;;;12.00;8.57;;;17.20;53.20;;;;;;4963610;29;20262;-62
2022/12/19 05:02:23;;;;;;;11.90;7.95;;;17.30;53.10;;;;;;4955656;29;20531;-62
2022/12/19 05:04:49;;;;;;;11.70;8.23;;;17.30;53.00;;;;;;4963498;29;20019;-62
2022/12/19 05:07:19;;;;;;;15.80;10.45;;;17.40;53.10;;;;;;4963320;29;20389;-65
2022/12/19 05:09:45;;;;;;;11.18;7.47;;;17.40;52.60;;;;;;4963705;29;20074;-62
2022/12/19 05:12:11;;;;;;;13.98;8.68;;;17.50;52.80;;;;;;4963446;29;20026;-63
2022/12/19 05:14:37;;;;;;;13.77;9.57;;;17.50;52.60;;;;;;4963335;29;20011;-62
2022/12/19 05:17:02;;;;;;;15.60;9.25;;;17.60;52.80;;;;;;4963429;29;20051;-62
2022/12/19 05:19:28;;;;;;;12.93;8.57;;;17.60;52.20;;;;;;4963335;29;20344;-62
2022/12/19 05:21:54;;;;;;;13.90;8.95;;;17.60;52.30;;;;;;4963325;29;20027;-62
2022/12/19 05:24:20;;;;;;;14.38;8.88;;;17.60;52.50;;;;;;4963292;29;20272;-61
2022/12/19 05:26:47;;;;;;;13.35;8.98;;;17.60;52.60;;;;;;4963153;29;20054;-62
2022/12/19 05:29:14;;;;;;;11.70;8.25;;;17.50;52.70;;;;;;4963240;29;20027;-63
2022/12/19 05:31:40;;;;;;;12.68;8.63;;;17.50;53.00;;;;;;4963174;29;20023;-63
2022/12/19 05:34:05;;;;;;;14.82;9.63;;;17.40;52.50;;;;;;4963274;29;20030;-63
2022/12/19 05:36:31;;;;;;;13.57;8.63;;;17.30;52.80;;;;;;4963260;29;20035;-63
2022/12/19 05:38:57;;;;;;;12.52;8.48;;;17.20;52.80;;;;;;4963052;29;20025;-62
2022/12/19 05:41:23;;;;;;;14.43;9.32;;;17.10;53.20;;;;;;4963354;29;20062;-62
2022/12/19 05:43:51;;;;;;;15.25;8.82;;;17.00;53.20;;;;;;4962779;29;20050;-62
2022/12/19 05:46:17;;;;;;;12.13;8.45;;;16.90;53.60;;;;;;4963083;29;20027;-62
2022/12/19 05:48:43;;;;;;;14.40;9.13;;;16.80;53.30;;;;;;4963041;29;20035;-62
2022/12/19 05:51:09;;;;;;;14.88;8.43;;;16.80;53.40;;;;;;4962985;29;20070;-63
2022/12/19 05:53:36;;;;;;;13.90;8.20;;;16.80;53.60;;;;;;4963077;29;20019;-63
2022/12/19 05:56:16;;;;;;;13.25;8.52;;;16.80;53.60;;;;;;4963036;29;20029;-63
2022/12/19 05:58:42;;;;;;;13.80;8.43;;;16.80;53.80;;;;;;4963187;29;20077;-63
2022/12/19 06:01:09;;;;;;;12.57;8.40;;;16.80;53.70;;;;;;4962931;29;20026;-62
2022/12/19 06:03:35;;;;;;;13.60;8.30;;;16.80;53.80;;;;;;4962845;29;20030;-62
2022/12/19 06:06:02;;;;;;;14.07;9.23;;;16.70;53.70;;;;;;4962859;29;20110;-62
2022/12/19 06:08:28;;;;;;;12.27;8.45;;;16.70;54.00;;;;;;4962659;29;20224;-62
2022/12/19 06:10:54;;;;;;;14.57;8.85;;;16.70;53.80;;;;;;4962658;29;20059;-62
2022/12/19 06:13:20;;;;;;;11.98;7.75;;;16.80;53.90;;;;;;4962775;29;20219;-62
2022/12/19 06:15:45;;;;;;;12.88;8.23;;;16.80;53.70;;;;;;4962790;29;20019;-63
2022/12/19 06:18:11;;;;;;;14.77;8.77;;;16.90;53.60;;;;;;4962768;29;20073;-62
2022/12/19 06:20:37;;;;;;;13.13;8.70;;;16.90;53.30;;;;;;4962737;29;20038;-62
2022/12/19 06:23:03;;;;;;;11.82;8.30;;;17.10;53.60;;;;;;4962736;29;20034;-63
2022/12/19 06:25:29;;;;;;;13.63;8.80;;;17.20;53.10;;;;;;4962652;29;20031;-63
2022/12/19 06:27:55;;;;;;;11.60;8.73;;;17.30;53.00;;;;;;4962688;29;20086;-62
2022/12/19 06:30:20;;;;;;;13.75;8.57;;;17.30;53.10;;;;;;4962510;29;20046;-63
2022/12/19 06:32:46;;;;;;;12.68;8.10;;;17.40;53.10;;;;;;4962509;29;20049;-61
2022/12/19 06:35:12;;;;;;;13.38;8.57;;;17.40;53.00;;;;;;4962490;29;20051;-62
2022/12/19 06:37:38;;;;;;;12.13;8.73;;;17.40;52.90;;;;;;4962572;29;20019;-62
2022/12/19 06:40:04;;;;;;;13.82;8.82;;;17.40;52.70;;;;;;4962573;29;20280;-62
2022/12/19 06:42:30;;;;;;;13.05;7.95;;;17.50;52.60;;;;;;4962428;29;20094;-62
2022/12/19 06:44:55;;;;;;;12.68;8.43;;;17.50;52.50;;;;;;4962548;29;20023;-62
2022/12/19 06:47:22;;;;;;;13.05;8.30;;;17.60;52.50;;;;;;4962721;29;20027;-61
2022/12/19 06:49:49;;;;;;;12.52;8.32;;;17.60;52.50;;;;;;4962511;29;20024;-61
2022/12/19 06:52:15;;;;;;;14.50;9.45;;;17.50;52.60;;;;;;4962436;29;20055;-62
2022/12/19 06:54:41;;;;;;;13.48;8.48;;;17.40;52.80;;;;;;4962390;29;20315;-62
2022/12/19 06:57:07;;;;;;;14.55;9.13;;;17.40;53.10;;;;;;4964157;28;20621;-62
2022/12/19 06:59:33;;;;;;;12.57;8.30;;;17.30;53.10;;;;;;4966035;29;20098;-62
2022/12/19 07:02:07;;;;;;;13.52;8.93;;;17.20;52.80;;;;;;4965846;29;20214;-63
2022/12/19 07:04:55;;;;;;;14.50;8.70;;;17.20;52.60;;;;;;4965771;29;20031;-63
2022/12/19 07:07:21;;;;;;;15.15;8.23;;;17.00;53.10;;;;;;4965682;29;20043;-62
2022/12/19 07:09:47;;;;;;;15.95;10.27;;;16.90;53.60;;;;;;4965609;29;20431;-62
2022/12/19 07:12:13;;;;;;;13.68;9.10;;;16.80;53.60;;;;;;4965569;29;20235;-62
2022/12/19 07:14:39;;;;;;;12.90;8.55;;;16.70;53.70;;;;;;4965475;29;20019;-62
2022/12/19 07:17:05;;;;;;;14.15;8.80;;;16.70;53.90;;;;;;4964247;29;20547;-62
2022/12/19 07:19:32;;;;;;;12.15;8.38;;;16.70;53.90;;;;;;4965482;29;20019;-62
2022/12/19 07:22:00;;;;;;;12.38;8.00;;;16.70;53.80;;;;;;4965502;29;20031;-62
2022/12/19 07:24:27;;;;;;;12.40;8.07;;;16.70;53.80;;;;;;4965383;29;20031;-62
2022/12/19 07:26:52;;;;;;;15.07;9.88;;;16.70;53.80;;;;;;4965354;29;20031;-61
2022/12/19 07:29:18;;;;;;;12.15;8.57;;;16.70;53.80;;;;;;4965341;29;20157;-62
2022/12/19 07:31:44;;;;;;;15.43;9.57;;;16.70;53.90;;;;;;4965105;29;20027;-61
2022/12/19 07:34:10;;;;;;;14.70;8.48;;;16.70;53.80;;;;;;4965160;29;20330;-61
2022/12/19 07:36:35;;;;;;;14.95;9.65;;;16.70;53.80;;;;;;4965151;29;20098;-62
2022/12/19 07:39:01;;;;;;;13.68;8.35;;;16.80;53.80;;;;;;4965138;29;20404;-62
2022/12/19 07:41:27;;;;;;;13.23;7.97;;;16.80;54.10;;;;;;4965004;29;20027;-62
2022/12/19 07:43:53;;;;;;;14.25;8.25;;;16.90;53.90;;;;;;4965021;29;20034;-62
2022/12/19 07:46:20;;;;;;;15.27;10.05;;;17.10;53.50;;;;;;4965040;29;20102;-61
2022/12/19 07:48:46;;;;;;;12.35;8.07;;;17.20;53.10;;;;;;4964810;29;20031;-62
2022/12/19 07:51:12;;;;;;;12.85;8.38;;;17.30;53.00;;;;;;4964801;29;20091;-61
2022/12/19 07:53:38;;;;;;;12.75;8.10;;;17.40;52.90;;;;;;4964780;29;20019;-62
2022/12/19 07:56:03;;;;;;;12.25;8.10;;;17.40;52.60;;;;;;4964831;29;20105;-61
2022/12/19 07:58:29;;;;;;;15.02;8.57;;;17.40;52.80;;;;;;4964683;29;20031;-62
2022/12/19 08:00:57;;;;;;;11.77;7.70;;;17.40;52.60;;;;;;4964636;29;20243;-62
2022/12/19 08:03:24;;;;;;;14.60;8.68;;;17.50;52.50;;;;;;4964600;29;20059;-61
2022/12/19 08:05:49;;;;;;;14.10;8.57;;;17.50;52.30;;;;;;4964609;29;20354;-62
2022/12/19 08:08:16;;;;;;;12.35;7.82;;;17.60;52.40;;;;;;4963940;28;20177;-62
2022/12/19 08:10:42;;;;;;;16.80;7.95;;;17.50;52.40;;;;;;4964435;29;20035;-62
2022/12/19 08:13:08;;;;;;;13.13;8.45;;;17.50;52.50;;;;;;4964488;29;20042;-63
2022/12/19 08:15:34;;;;;;;11.60;8.02;;;17.40;52.70;;;;;;4964465;29;20038;-61
2022/12/19 08:18:01;;;;;;;13.30;8.60;;;17.30;52.80;;;;;;4964271;29;20019;-62
2022/12/19 08:20:27;;;;;;;11.23;8.20;;;17.30;53.00;;;;;;4964288;29;20414;-62
2022/12/19 08:22:53;;;;;;;12.10;7.95;;;17.20;53.00;;;;;;4964289;29;20307;-62
2022/12/19 08:25:19;;;;;;;13.57;8.57;;;17.20;52.70;;;;;;4963010;29;20023;-62
2022/12/19 08:27:44;;;;;;;12.35;8.45;;;17.10;53.00;;;;;;4964132;29;20033;-63
2022/12/19 08:30:12;;;;;;;12.63;8.30;;;17.00;53.10;;;;;;4964062;29;20062;-61
2022/12/19 08:32:39;;;;;;;15.48;9.45;;;16.90;53.20;;;;;;4964031;29;20031;-61
2022/12/19 08:35:06;;;;;;;13.98;9.05;;;16.80;53.50;;;;;;4964010;29;20034;-62
2022/12/19 08:37:31;;;;;;;13.60;8.90;;;16.80;53.90;;;;;;4964025;29;20062;-62
2022/12/19 08:39:57;;;;;;;11.80;7.88;;;16.70;53.80;;;;;;4963983;29;20222;-62
2022/12/19 08:42:23;;;;;;;12.80;8.13;;;16.70;53.80;;;;;;4963862;29;20031;-62
2022/12/19 08:44:49;;;;;;;11.73;8.10;;;16.70;53.90;;;;;;4963889;29;20019;-62
2022/12/19 08:47:15;;;;;;;12.25;8.13;;;16.70;53.70;;;;;;4963807;29;20035;-61
2022/12/19 08:49:40;;;;;;;12.35;8.30;;;16.70;53.60;;;;;;4963812;29;20219;-61
2022/12/19 08:52:06;;;;;;;13.73;9.65;;;16.70;53.70;;;;;;4963563;29;20038;-61
2022/12/19 08:54:32;;;;;;;12.32;7.95;;;16.70;53.70;;;;;;4963737;29;20019;-62
2022/12/19 08:56:58;;;;;;;11.65;7.95;;;16.70;53.70;;;;;;4963567;29;20331;-61
2022/12/19 08:59:24;;;;;;;13.48;8.30;;;16.70;53.60;;;;;;4963847;29;20019;-61
2022/12/19 09:01:50;;;;;;;13.30;8.85;;;16.80;53.70;;;;;;4963590;29;20041;-61
2022/12/19 09:04:16;;;;;;;13.57;8.38;;;16.80;53.40;;;;;;4963551;29;20034;-61
2022/12/19 09:06:42;;;;;;;12.30;8.23;;;17.00;53.40;;;;;;4963051;29;20047;-61
2022/12/19 09:09:08;;;;;;;12.10;8.10;;;17.20;53.00;;;;;;4963244;29;20031;-62
2022/12/19 09:11:37;;;;;;;12.95;7.90;;;17.40;52.60;;;;;;4962900;29;20219;-63
2022/12/19 09:14:03;;;;;;;12.05;7.88;;;17.50;52.10;;;;;;4963090;29;20236;-62
2022/12/19 09:16:30;;;;;;;12.02;8.00;;;17.40;52.20;;;;;;4963178;29;20090;-61
2022/12/19 09:18:57;;;;;;;12.70;8.85;;;17.40;52.40;;;;;;4962547;28;20091;-61
2022/12/19 09:21:25;;;;;;;10.77;7.82;;;17.40;52.40;;;;;;4963024;29;20031;-61
2022/12/19 09:23:53;;;;;;;;;;;17.50;52.00;;;;;;4963449;29;20263;-62
2022/12/19 09:26:21;;;;;;;10.57;7.13;;;17.60;52.10;;;;;;4963108;29;19911;-62
2022/12/19 09:28:47;;;;;;;11.35;7.85;;;17.70;51.90;;;;;;4962951;29;20031;-62
2022/12/19 09:31:18;;;;;;;13.18;8.63;;;17.70;51.60;;;;;;4962906;29;20019;-62
2022/12/19 09:33:44;;;;;;;14.73;9.07;;;17.60;51.80;;;;;;4962863;29;20049;-62
2022/12/19 09:36:15;;;;;;;11.57;7.93;;;17.40;52.20;;;;;;4962949;29;20020;-62
2022/12/19 09:38:41;;;;;;;13.65;8.05;;;17.40;52.40;;;;;;4962959;29;20338;-62
2022/12/19 09:41:34;;;;;;;12.07;8.23;;;17.40;52.50;;;;;;4962885;29;20038;-62
2022/12/19 09:44:19;;;;;;;11.60;7.53;;;17.30;52.60;;;;;;4961480;29;20235;-62
2022/12/19 09:46:52;;;;;;;12.93;8.23;;;17.20;52.70;;;;;;4962764;29;20223;-62
2022/12/19 09:49:33;;;;;;;11.93;7.65;;;17.20;52.80;;;;;;4962687;29;20055;-62
2022/12/19 09:52:06;;;;;;;14.20;8.88;;;17.10;53.20;;;;;;4962643;29;20519;-62
2022/12/19 09:54:38;;;;;;;11.90;7.72;;;17.00;53.20;;;;;;4962694;29;20043;-62
2022/12/19 09:57:17;;;;;;;9.35;7.30;;;16.90;53.20;;;;;;4961528;29;20031;-62
2022/12/19 09:59:50;;;;;;;13.38;8.52;;;16.90;53.40;;;;;;4962657;29;20011;-62
2022/12/19 10:02:28;;;;;;;12.20;7.82;;;16.90;53.50;;;;;;4962728;29;20026;-62
2022/12/19 10:05:26;;;;;;;12.45;7.78;;;16.90;53.30;;;;;;4962710;29;20369;-62
2022/12/19 10:07:53;;;;;;;12.80;7.95;;;16.90;53.40;;;;;;4961338;29;20066;-62
2022/12/19 10:10:39;;;;;;;12.68;8.13;;;16.90;53.10;;;;;;4962518;29;20083;-62
2022/12/19 10:13:50;;;;;;;11.63;7.45;;;16.90;53.00;;;;;;4962480;29;20027;-62
2022/12/19 10:16:19;;;;;;;11.75;8.25;;;16.90;53.10;;;;;;4962453;29;20457;-64
2022/12/19 10:19:11;;;;;;;11.10;7.75;;;17.00;53.00;;;;;;4962347;29;20051;-62
2022/12/19 10:21:59;;;;;;;11.85;7.72;;;17.00;52.90;;;;;;4959913;29;20042;-61
2022/12/19 10:24:34;;;;;;;10.88;7.20;;;17.10;52.90;;;;;;4962545;29;20054;-62
2022/12/19 10:27:15;;;;;;;11.48;7.72;;;17.10;52.90;;;;;;4962287;29;20109;-62
2022/12/19 10:30:07;;;;;;;12.15;7.30;;;17.20;52.90;;;;;;4962464;29;20323;-61
2022/12/19 10:32:50;;;;;;;11.73;7.90;;;17.30;52.60;;;;;;4965715;29;20238;-63
2022/12/19 10:35:18;;;;;;;10.27;7.50;;;17.40;52.20;;;;;;4966050;29;20023;-62
2022/12/19 10:37:55;;;;;;;12.25;7.60;;;17.40;52.10;;;;;;4966043;29;20015;-62
2022/12/19 10:40:33;;;;;;;11.20;8.00;;;17.50;52.10;;;;;;4966069;29;20019;-62
2022/12/19 10:43:15;;;;;;;12.05;7.30;;;17.40;52.00;;;;;;4965908;29;20043;-61
2022/12/19 10:45:45;;;;;;;12.82;7.60;;;17.40;52.30;;;;;;4965956;29;20070;-62
2022/12/19 10:48:16;;;;;;;14.20;8.82;;;17.40;52.30;;;;;;4965932;29;20070;-61
2022/12/19 10:50:42;;;;;;;12.38;8.10;;;17.40;52.30;;;;;;4965626;29;20023;-61
2022/12/19 10:53:12;;;;;;;12.02;7.18;;;17.40;52.40;;;;;;4965832;29;20349;-62
2022/12/19 10:55:42;;;;;;;11.07;7.43;;;17.40;52.30;;;;;;4965721;29;20098;-64
2022/12/19 10:58:22;;;;;;;10.63;7.50;;;17.30;52.50;;;;;;4965719;29;20037;-62
2022/12/19 11:01:09;;;;;;;11.73;7.78;;;17.30;52.60;;;;;;4964383;29;20102;-62
2022/12/19 11:03:37;;;;;;;12.50;7.75;;;17.30;52.50;;;;;;4965539;29;20023;-61
2022/12/19 11:06:04;;;;;;;9.90;6.95;;;17.20;52.70;;;;;;4965485;29;20031;-63
2022/12/19 11:08:36;;;;;;;10.88;7.13;;;17.20;52.80;;;;;;4965318;29;20090;-62
2022/12/19 11:11:05;;;;;;;12.82;7.72;;;17.20;52.90;;;;;;4965173;29;20023;-62
2022/12/19 11:13:34;;;;;;;10.73;7.80;;;17.10;52.90;;;;;;4965367;29;20034;-62
2022/12/19 11:16:00;;;;;;;;;;;17.10;52.90;;;;;;4965824;29;20023;-61
2022/12/19 11:18:38;;;;;;;11.27;7.75;;;17.00;53.10;;;;;;4965200;29;19953;-62
2022/12/19 11:21:09;;;;;;;11.27;7.80;;;17.00;53.20;;;;;;4965264;29;20035;-61
2022/12/19 11:23:36;;;;;;;11.50;7.68;;;17.00;53.20;;;;;;4965293;29;20307;-61
2022/12/19 11:26:04;;;;;;;10.35;7.38;;;17.10;52.90;;;;;;4965267;29;20225;-62
2022/12/19 11:28:36;;;;;;;10.10;7.07;;;17.20;52.80;;;;;;4965139;29;20019;-61
2022/12/19 11:31:31;;;;;;;10.65;7.30;;;17.10;52.70;;;;;;4947677;29;20102;-62
2022/12/19 11:34:14;;;;;;;10.10;7.28;;;17.10;53.00;;;;;;4963736;29;20065;-61
2022/12/19 11:36:56;;;;;;;10.15;6.97;;;17.00;52.90;;;;;;4965029;29;20418;-61
2022/12/19 11:39:32;;;;;;;14.32;7.50;;;17.00;52.90;;;;;;4964973;29;20039;-61
2022/12/19 11:42:11;;;;;;;10.02;7.63;;;17.00;52.90;;;;;;4964156;28;20100;-62
2022/12/19 11:44:46;;;;;;;;;;;17.00;53.00;;;;;;4965271;29;20057;-61
2022/12/19 11:47:19;;;;;;;11.68;7.50;;;17.00;53.10;;;;;;4964734;29;20222;-61
2022/12/19 11:49:52;;;;;;;10.73;6.97;;;17.00;53.00;;;;;;4964809;29;20330;-61
2022/12/19 11:52:42;;;;;;;11.50;7.10;;;17.10;52.90;;;;;;4964706;29;20027;-62
2022/12/19 11:55:35;;;;;;;10.60;6.82;;;17.30;52.10;;;;;;4964660;29;20015;-62
2022/12/19 11:58:01;;;;;;;11.38;6.65;;;17.40;52.30;;;;;;4964587;29;20091;-62
2022/12/19 12:00:28;;;;;;;11.48;6.93;;;17.30;52.20;;;;;;4964545;29;20239;-62
2022/12/19 12:03:17;;;;;;;10.48;7.63;;;17.50;52.20;;;;;;4964492;29;20031;-62
2022/12/19 12:05:48;;;;;;;11.18;7.05;;;17.60;51.80;;;;;;4963185;29;20027;-62
2022/12/19 12:08:41;;;;;;;9.57;6.50;;;17.50;51.80;;;;;;4964266;29;20061;-62
2022/12/19 12:11:17;;;;;;;10.57;6.93;;;17.40;52.10;;;;;;4964232;29;20126;-62
2022/12/19 12:14:06;;;;;;;10.05;7.50;;;17.30;52.30;;;;;;4963195;29;20282;-62
2022/12/19 12:17:02;;;;;;;8.68;6.53;;;17.20;52.70;;;;;;4964283;29;20071;-62
2022/12/19 12:19:36;;;;;;;11.98;7.47;;;17.10;52.90;;;;;;4964255;29;20323;-62
2022/12/19 12:22:02;;;;;;;11.00;7.55;;;17.10;52.80;;;;;;4964034;29;20026;-62
2022/12/19 12:24:47;;;;;;;10.55;6.85;;;17.10;52.70;;;;;;4964125;29;20354;-62
2022/12/19 12:27:34;;;;;;;9.55;6.75;;;17.20;52.60;;;;;;4964096;29;20039;-61
2022/12/19 12:30:03;;;;;;;10.23;7.18;;;17.20;52.60;;;;;;4963822;29;20031;-61
2022/12/19 12:32:54;;;;;;;9.68;7.00;;;17.30;52.40;;;;;;4963805;29;20046;-62
2022/12/19 12:35:38;;;;;;;11.90;7.15;;;17.40;52.30;;;;;;4963934;29;20237;-62
2022/12/19 12:38:25;;;;;;;10.25;7.03;;;17.40;52.30;;;;;;4963880;29;20019;-62
2022/12/19 12:40:57;;;;;;;11.30;6.63;;;17.30;52.10;;;;;;4963790;29;20031;-63
2022/12/19 12:43:42;;;;;;;10.85;6.95;;;17.30;52.20;;;;;;4963736;29;20027;-62
2022/12/19 12:46:19;;;;;;;12.27;8.05;;;17.40;52.10;;;;;;4963465;29;20315;-63
2022/12/19 12:48:55;;;;;;;11.18;7.25;;;17.40;52.10;;;;;;4963639;29;20218;-62
2022/12/19 12:51:23;;;;;;;10.48;7.57;;;17.40;52.00;;;;;;4963577;29;20204;-62
2022/12/19 12:53:59;;;;;;;10.00;6.45;;;17.30;52.10;;;;;;4963598;28;20023;-62
2022/12/19 12:56:26;;;;;;;9.00;6.72;;;17.40;52.30;;;;;;4963503;29;20050;-61
2022/12/19 12:58:52;;;;;;;10.13;6.95;;;17.40;51.90;;;;;;4963535;29;20030;-61
2022/12/19 13:01:26;;;;;;;10.88;6.95;;;17.60;51.80;;;;;;4963446;29;20019;-61
2022/12/19 13:04:09;;;;;;;9.88;6.97;;;17.70;51.40;;;;;;4963456;29;20038;-62